sensor_id;sensor_type;location;lat;lon;timestamp;temperature;humidity
5466;DHT22;2755;50.728;7.108;2022-11-21T00:00:21;7.30;99.90
5466;DHT22;2755;50.728;7.108;2022-11-21T00:02:47;7.10;99.90
5466;DHT22;2755;50.728;7.108;2022-11-21T00:05:13;7.20;99.90
5466;DHT22;2755;50.728;7.108;2022-11-21T00:07:38;7.70;99.90
5466;DHT22;2755;50.728;7.108;2022-11-21T00:10:04;6.30;99.90
5466;DHT22;2755;50.728;7.108;2022-11-21T00:12:30;7.10;99.90
5466;DHT22;2755;50.728;7.108;2022-11-21T00:19:48;7.50;99.90
5466;DHT22;2755;50.728;7.108;2022-11-21T00:22:13;7.70;99.90
5466;DHT22;2755;50.728;7.108;2022-11-21T00:24:39;7.30;99.90
5466;DHT22;2755;50.728;7.108;2022-11-21T00:27:04;7.20;99.90
5466;DHT22;2755;50.728;7.108;2022-11-21T00:29:30;7.30;99.90
5466;DHT22;2755;50.728;7.108;2022-11-21T00:31:56;7.20;99.90
5466;DHT22;2755;50.728;7.108;2022-11-21T00:34:21;7.30;99.90
5466;DHT22;2755;50.728;7.108;2022-11-21T00:36:47;6.70;99.90
5466;DHT22;2755;50.728;7.108;2022-11-21T00:41:38;7.60;99.90
5466;DHT22;2755;50.728;7.108;2022-11-21T00:44:04;7.20;99.90
5466;DHT22;2755;50.728;7.108;2022-11-21T00:48:55;7.40;99.90
5466;DHT22;2755;50.728;7.108;2022-11-21T00:51:21;7.10;99.90
5466;DHT22;2755;50.728;7.108;2022-11-21T00:53:47;7.60;99.90
5466;DHT22;2755;50.728;7.108;2022-11-21T00:56:12;7.50;99.90
5466;DHT22;2755;50.728;7.108;2022-11-21T00:58:38;6.70;99.90
5466;DHT22;2755;50.728;7.108;2022-11-21T01:01:09;7.50;99.90
5466;DHT22;2755;50.728;7.108;2022-11-21T01:03:35;7.80;99.90
5466;DHT22;2755;50.728;7.108;2022-11-21T01:06:12;7.50;99.90
5466;DHT22;2755;50.728;7.108;2022-11-21T01:08:40;7.70;99.90
5466;DHT22;2755;50.728;7.108;2022-11-21T01:11:08;7.80;99.90
5466;DHT22;2755;50.728;7.108;2022-11-21T01:13:35;7.80;99.90
5466;DHT22;2755;50.728;7.108;2022-11-21T01:16:22;7.40;99.90
5466;DHT22;2755;50.728;7.108;2022-11-21T01:21:18;7.10;99.90
5466;DHT22;2755;50.728;7.108;2022-11-21T01:26:12;7.20;99.90
5466;DHT22;2755;50.728;7.108;2022-11-21T01:28:38;7.30;99.90
5466;DHT22;2755;50.728;7.108;2022-11-21T01:31:06;6.80;99.90
5466;DHT22;2755;50.728;7.108;2022-11-21T01:33:33;6.90;99.90
5466;DHT22;2755;50.728;7.108;2022-11-21T01:36:16;7.00;99.90
5466;DHT22;2755;50.728;7.108;2022-11-21T01:38:45;6.80;99.90
5466;DHT22;2755;50.728;7.108;2022-11-21T01:41:13;6.50;99.90
5466;DHT22;2755;50.728;7.108;2022-11-21T01:43:39;7.20;99.90
5466;DHT22;2755;50.728;7.108;2022-11-21T01:56:48;6.80;99.90
5466;DHT22;2755;50.728;7.108;2022-11-21T01:59:20;6.20;99.90
5466;DHT22;2755;50.728;7.108;2022-11-21T02:01:49;6.60;99.90
5466;DHT22;2755;50.728;7.108;2022-11-21T02:04:16;6.60;99.90
5466;DHT22;2755;50.728;7.108;2022-11-21T02:06:42;6.70;99.90
5466;DHT22;2755;50.728;7.108;2022-11-21T02:09:08;6.70;99.90
5466;DHT22;2755;50.728;7.108;2022-11-21T02:11:41;6.50;99.90
5466;DHT22;2755;50.728;7.108;2022-11-21T02:14:08;6.90;99.90
5466;DHT22;2755;50.728;7.108;2022-11-21T02:16:34;6.90;99.90
5466;DHT22;2755;50.728;7.108;2022-11-21T02:19:00;6.80;99.90
5466;DHT22;2755;50.728;7.108;2022-11-21T02:24:36;6.60;99.90
5466;DHT22;2755;50.728;7.108;2022-11-21T02:27:04;7.00;99.90
5466;DHT22;2755;50.728;7.108;2022-11-21T02:29:30;7.30;99.90
5466;DHT22;2755;50.728;7.108;2022-11-21T02:31:59;6.50;99.90
5466;DHT22;2755;50.728;7.108;2022-11-21T02:34:27;6.40;99.90
5466;DHT22;2755;50.728;7.108;2022-11-21T02:36:52;6.00;99.90
5466;DHT22;2755;50.728;7.108;2022-11-21T02:39:22;6.90;99.90
5466;DHT22;2755;50.728;7.108;2022-11-21T02:42:47;6.40;99.90
5466;DHT22;2755;50.728;7.108;2022-11-21T02:45:20;6.40;99.90
5466;DHT22;2755;50.728;7.108;2022-11-21T02:47:50;6.20;99.90
5466;DHT22;2755;50.728;7.108;2022-11-21T02:50:29;6.10;99.90
5466;DHT22;2755;50.728;7.108;2022-11-21T02:52:55;6.40;99.90
5466;DHT22;2755;50.728;7.108;2022-11-21T02:55:22;6.40;99.90
5466;DHT22;2755;50.728;7.108;2022-11-21T02:57:48;6.00;99.90
5466;DHT22;2755;50.728;7.108;2022-11-21T03:00:14;6.00;99.90
5466;DHT22;2755;50.728;7.108;2022-11-21T03:05:08;6.30;99.90
5466;DHT22;2755;50.728;7.108;2022-11-21T03:07:34;6.20;99.90
5466;DHT22;2755;50.728;7.108;2022-11-21T03:12:25;6.50;99.90
5466;DHT22;2755;50.728;7.108;2022-11-21T03:19:43;6.50;99.90
5466;DHT22;2755;50.728;7.108;2022-11-21T03:22:09;6.40;99.90
5466;DHT22;2755;50.728;7.108;2022-11-21T03:24:35;6.60;99.90
5466;DHT22;2755;50.728;7.108;2022-11-21T03:29:26;6.50;99.90
5466;DHT22;2755;50.728;7.108;2022-11-21T03:31:52;6.40;99.90
5466;DHT22;2755;50.728;7.108;2022-11-21T03:34:17;6.00;99.90
5466;DHT22;2755;50.728;7.108;2022-11-21T03:36:43;6.60;99.90
5466;DHT22;2755;50.728;7.108;2022-11-21T03:39:09;6.90;99.90
5466;DHT22;2755;50.728;7.108;2022-11-21T03:41:34;6.90;99.90
5466;DHT22;2755;50.728;7.108;2022-11-21T03:44:08;6.70;99.90
5466;DHT22;2755;50.728;7.108;2022-11-21T03:46:40;6.10;99.90
5466;DHT22;2755;50.728;7.108;2022-11-21T03:49:07;5.90;99.90
5466;DHT22;2755;50.728;7.108;2022-11-21T03:51:33;6.00;99.90
5466;DHT22;2755;50.728;7.108;2022-11-21T03:53:59;6.60;99.90
5466;DHT22;2755;50.728;7.108;2022-11-21T03:58:51;6.60;99.90
5466;DHT22;2755;50.728;7.108;2022-11-21T04:01:17;6.70;99.90
5466;DHT22;2755;50.728;7.108;2022-11-21T04:03:43;6.60;99.90
5466;DHT22;2755;50.728;7.108;2022-11-21T04:06:11;6.50;99.90
5466;DHT22;2755;50.728;7.108;2022-11-21T04:08:37;6.40;99.90
5466;DHT22;2755;50.728;7.108;2022-11-21T04:11:02;6.30;99.90
5466;DHT22;2755;50.728;7.108;2022-11-21T04:13:28;6.60;99.90
5466;DHT22;2755;50.728;7.108;2022-11-21T04:15:54;6.80;99.90
5466;DHT22;2755;50.728;7.108;2022-11-21T04:18:19;6.70;99.90
5466;DHT22;2755;50.728;7.108;2022-11-21T04:20:45;6.40;99.90
5466;DHT22;2755;50.728;7.108;2022-11-21T04:23:10;5.80;99.90
5466;DHT22;2755;50.728;7.108;2022-11-21T04:25:36;6.80;99.90
5466;DHT22;2755;50.728;7.108;2022-11-21T04:28:02;6.30;99.90
5466;DHT22;2755;50.728;7.108;2022-11-21T04:30:29;6.40;99.90
5466;DHT22;2755;50.728;7.108;2022-11-21T04:32:55;6.20;99.90
5466;DHT22;2755;50.728;7.108;2022-11-21T04:35:22;6.70;99.90
5466;DHT22;2755;50.728;7.108;2022-11-21T04:37:48;5.80;99.90
5466;DHT22;2755;50.728;7.108;2022-11-21T04:40:14;5.80;99.90
5466;DHT22;2755;50.728;7.108;2022-11-21T04:42:47;6.00;99.90
5466;DHT22;2755;50.728;7.108;2022-11-21T04:45:14;5.60;99.90
5466;DHT22;2755;50.728;7.108;2022-11-21T04:47:42;5.70;99.90
5466;DHT22;2755;50.728;7.108;2022-11-21T04:50:09;5.20;99.90
5466;DHT22;2755;50.728;7.108;2022-11-21T04:52:35;5.90;99.90
5466;DHT22;2755;50.728;7.108;2022-11-21T04:55:02;5.60;99.90
5466;DHT22;2755;50.728;7.108;2022-11-21T04:57:29;5.30;99.90
5466;DHT22;2755;50.728;7.108;2022-11-21T04:59:54;5.50;99.90
5466;DHT22;2755;50.728;7.108;2022-11-21T05:02:21;5.60;99.90
5466;DHT22;2755;50.728;7.108;2022-11-21T05:04:46;5.80;99.90
5466;DHT22;2755;50.728;7.108;2022-11-21T05:07:12;5.30;99.90
5466;DHT22;2755;50.728;7.108;2022-11-21T05:09:38;5.70;99.90
5466;DHT22;2755;50.728;7.108;2022-11-21T05:17:14;6.70;99.90
5466;DHT22;2755;50.728;7.108;2022-11-21T05:19:40;6.10;99.90
5466;DHT22;2755;50.728;7.108;2022-11-21T05:22:06;6.00;99.90
5466;DHT22;2755;50.728;7.108;2022-11-21T05:24:31;6.10;99.90
5466;DHT22;2755;50.728;7.108;2022-11-21T05:26:57;5.70;99.90
5466;DHT22;2755;50.728;7.108;2022-11-21T05:29:22;6.10;99.90
5466;DHT22;2755;50.728;7.108;2022-11-21T05:31:48;5.90;99.90
5466;DHT22;2755;50.728;7.108;2022-11-21T05:34:13;6.20;99.90
5466;DHT22;2755;50.728;7.108;2022-11-21T05:36:39;6.10;99.90
5466;DHT22;2755;50.728;7.108;2022-11-21T05:39:05;5.90;99.90
5466;DHT22;2755;50.728;7.108;2022-11-21T05:41:30;5.90;99.90
5466;DHT22;2755;50.728;7.108;2022-11-21T05:43:56;6.60;99.90
5466;DHT22;2755;50.728;7.108;2022-11-21T05:46:23;5.90;99.90
5466;DHT22;2755;50.728;7.108;2022-11-21T05:48:51;6.00;99.90
5466;DHT22;2755;50.728;7.108;2022-11-21T05:51:17;6.20;99.90
5466;DHT22;2755;50.728;7.108;2022-11-21T05:53:43;6.10;99.90
5466;DHT22;2755;50.728;7.108;2022-11-21T05:56:12;5.90;99.90
5466;DHT22;2755;50.728;7.108;2022-11-21T05:58:38;6.10;99.90
5466;DHT22;2755;50.728;7.108;2022-11-21T06:01:05;6.10;99.90
5466;DHT22;2755;50.728;7.108;2022-11-21T06:03:34;6.40;99.90
5466;DHT22;2755;50.728;7.108;2022-11-21T06:08:30;6.20;99.90
5466;DHT22;2755;50.728;7.108;2022-11-21T06:10:56;6.30;99.90
5466;DHT22;2755;50.728;7.108;2022-11-21T06:15:58;6.70;99.90
5466;DHT22;2755;50.728;7.108;2022-11-21T06:18:25;6.20;99.90
5466;DHT22;2755;50.728;7.108;2022-11-21T06:23:16;6.00;99.90
5466;DHT22;2755;50.728;7.108;2022-11-21T06:25:42;6.30;99.90
5466;DHT22;2755;50.728;7.108;2022-11-21T06:28:09;6.70;99.90
5466;DHT22;2755;50.728;7.108;2022-11-21T06:30:34;6.60;99.90
5466;DHT22;2755;50.728;7.108;2022-11-21T06:33:03;6.30;99.90
5466;DHT22;2755;50.728;7.108;2022-11-21T06:35:29;6.70;99.90
5466;DHT22;2755;50.728;7.108;2022-11-21T06:37:55;6.30;99.90
5466;DHT22;2755;50.728;7.108;2022-11-21T06:42:47;6.20;99.90
5466;DHT22;2755;50.728;7.108;2022-11-21T06:45:12;6.00;99.90
5466;DHT22;2755;50.728;7.108;2022-11-21T06:50:04;6.60;99.90
5466;DHT22;2755;50.728;7.108;2022-11-21T06:52:32;6.10;99.90
5466;DHT22;2755;50.728;7.108;2022-11-21T06:54:58;6.00;99.90
5466;DHT22;2755;50.728;7.108;2022-11-21T07:02:15;6.20;99.90
5466;DHT22;2755;50.728;7.108;2022-11-21T07:04:41;6.10;99.90
5466;DHT22;2755;50.728;7.108;2022-11-21T07:07:06;6.20;99.90
5466;DHT22;2755;50.728;7.108;2022-11-21T07:12:01;6.00;99.90
5466;DHT22;2755;50.728;7.108;2022-11-21T07:14:45;6.00;99.90
5466;DHT22;2755;50.728;7.108;2022-11-21T07:19:37;6.40;99.90
5466;DHT22;2755;50.728;7.108;2022-11-21T07:22:03;5.70;99.90
5466;DHT22;2755;50.728;7.108;2022-11-21T07:24:29;6.20;99.90
5466;DHT22;2755;50.728;7.108;2022-11-21T07:31:46;6.00;99.90
5466;DHT22;2755;50.728;7.108;2022-11-21T07:36:38;5.60;99.90
5466;DHT22;2755;50.728;7.108;2022-11-21T07:39:03;6.30;99.90
5466;DHT22;2755;50.728;7.108;2022-11-21T07:41:31;6.40;99.90
5466;DHT22;2755;50.728;7.108;2022-11-21T07:43:56;6.60;99.90
5466;DHT22;2755;50.728;7.108;2022-11-21T07:46:22;6.30;99.90
5466;DHT22;2755;50.728;7.108;2022-11-21T07:48:48;6.20;99.90
5466;DHT22;2755;50.728;7.108;2022-11-21T07:51:14;6.10;99.90
5466;DHT22;2755;50.728;7.108;2022-11-21T08:03:30;6.50;99.90
5466;DHT22;2755;50.728;7.108;2022-11-21T08:05:56;5.80;99.90
5466;DHT22;2755;50.728;7.108;2022-11-21T08:10:52;6.70;99.90
5466;DHT22;2755;50.728;7.108;2022-11-21T08:13:17;6.80;99.90
5466;DHT22;2755;50.728;7.108;2022-11-21T08:18:14;7.00;99.90
5466;DHT22;2755;50.728;7.108;2022-11-21T08:20:41;7.10;99.90
5466;DHT22;2755;50.728;7.108;2022-11-21T08:23:07;6.80;99.90
5466;DHT22;2755;50.728;7.108;2022-11-21T08:25:36;7.10;99.90
5466;DHT22;2755;50.728;7.108;2022-11-21T08:28:02;7.40;99.90
5466;DHT22;2755;50.728;7.108;2022-11-21T08:32:54;7.30;99.90
5466;DHT22;2755;50.728;7.108;2022-11-21T08:35:19;6.80;99.90
5466;DHT22;2755;50.728;7.108;2022-11-21T08:37:45;7.30;99.90
5466;DHT22;2755;50.728;7.108;2022-11-21T08:45:04;7.20;99.90
5466;DHT22;2755;50.728;7.108;2022-11-21T08:47:32;7.30;99.90
5466;DHT22;2755;50.728;7.108;2022-11-21T08:52:24;7.60;99.90
5466;DHT22;2755;50.728;7.108;2022-11-21T08:54:49;6.70;99.90
5466;DHT22;2755;50.728;7.108;2022-11-21T08:57:15;7.50;99.90
5466;DHT22;2755;50.728;7.108;2022-11-21T08:59:40;6.70;99.90
5466;DHT22;2755;50.728;7.108;2022-11-21T09:02:08;7.30;99.90
5466;DHT22;2755;50.728;7.108;2022-11-21T09:09:26;7.60;99.90
5466;DHT22;2755;50.728;7.108;2022-11-21T09:11:52;7.80;99.90
5466;DHT22;2755;50.728;7.108;2022-11-21T09:14:17;8.80;99.90
5466;DHT22;2755;50.728;7.108;2022-11-21T09:17:02;8.60;99.90
5466;DHT22;2755;50.728;7.108;2022-11-21T09:19:46;9.60;99.90
5466;DHT22;2755;50.728;7.108;2022-11-21T09:22:11;10.30;99.90
5466;DHT22;2755;50.728;7.108;2022-11-21T09:24:37;10.90;99.90
5466;DHT22;2755;50.728;7.108;2022-11-21T09:27:02;11.40;99.90
5466;DHT22;2755;50.728;7.108;2022-11-21T09:31:54;12.00;99.90
5466;DHT22;2755;50.728;7.108;2022-11-21T09:34:19;12.20;99.90
5466;DHT22;2755;50.728;7.108;2022-11-21T09:36:45;11.80;99.90
5466;DHT22;2755;50.728;7.108;2022-11-21T09:42:03;11.80;99.90
5466;DHT22;2755;50.728;7.108;2022-11-21T09:44:47;11.30;99.90
5466;DHT22;2755;50.728;7.108;2022-11-21T09:47:27;12.30;99.90
5466;DHT22;2755;50.728;7.108;2022-11-21T09:52:43;12.80;99.90
5466;DHT22;2755;50.728;7.108;2022-11-21T09:57:46;13.00;99.90
5466;DHT22;2755;50.728;7.108;2022-11-21T10:00:22;13.40;99.90
5466;DHT22;2755;50.728;7.108;2022-11-21T10:02:49;13.70;98.40
5466;DHT22;2755;50.728;7.108;2022-11-21T10:05:15;13.10;98.00
5466;DHT22;2755;50.728;7.108;2022-11-21T10:07:43;13.70;98.10
5466;DHT22;2755;50.728;7.108;2022-11-21T10:10:22;13.40;96.80
5466;DHT22;2755;50.728;7.108;2022-11-21T10:13:27;13.80;98.00
5466;DHT22;2755;50.728;7.108;2022-11-21T10:16:29;13.80;98.10
5466;DHT22;2755;50.728;7.108;2022-11-21T10:19:17;14.00;98.40
5466;DHT22;2755;50.728;7.108;2022-11-21T10:25:27;13.30;96.40
5466;DHT22;2755;50.728;7.108;2022-11-21T10:28:19;13.30;97.50
5466;DHT22;2755;50.728;7.108;2022-11-21T10:30:47;12.60;96.40
5466;DHT22;2755;50.728;7.108;2022-11-21T10:33:25;12.30;98.00
5466;DHT22;2755;50.728;7.108;2022-11-21T10:35:58;12.40;98.40
5466;DHT22;2755;50.728;7.108;2022-11-21T10:38:26;12.40;98.60
5466;DHT22;2755;50.728;7.108;2022-11-21T10:41:22;12.10;97.30
5466;DHT22;2755;50.728;7.108;2022-11-21T10:44:00;11.80;99.30
5466;DHT22;2755;50.728;7.108;2022-11-21T10:46:54;11.60;98.40
5466;DHT22;2755;50.728;7.108;2022-11-21T10:57:15;11.30;99.90
5466;DHT22;2755;50.728;7.108;2022-11-21T11:02:38;11.00;99.00
5466;DHT22;2755;50.728;7.108;2022-11-21T11:07:59;11.60;99.90
5466;DHT22;2755;50.728;7.108;2022-11-21T11:10:25;11.00;99.90
5466;DHT22;2755;50.728;7.108;2022-11-21T11:12:51;11.70;99.30
5466;DHT22;2755;50.728;7.108;2022-11-21T11:15:38;12.00;97.70
5466;DHT22;2755;50.728;7.108;2022-11-21T11:18:20;11.80;98.70
5466;DHT22;2755;50.728;7.108;2022-11-21T11:20:46;11.30;98.20
5466;DHT22;2755;50.728;7.108;2022-11-21T11:23:32;11.30;99.80
5466;DHT22;2755;50.728;7.108;2022-11-21T11:25:59;11.00;99.70
5466;DHT22;2755;50.728;7.108;2022-11-21T11:28:26;11.30;99.90
5466;DHT22;2755;50.728;7.108;2022-11-21T11:33:37;11.10;99.90
5466;DHT22;2755;50.728;7.108;2022-11-21T11:36:24;11.40;99.50
5466;DHT22;2755;50.728;7.108;2022-11-21T11:38:56;10.20;98.90
5466;DHT22;2755;50.728;7.108;2022-11-21T11:44:32;10.70;99.90
5466;DHT22;2755;50.728;7.108;2022-11-21T11:47:23;10.80;99.90
5466;DHT22;2755;50.728;7.108;2022-11-21T11:50:02;11.20;99.90
5466;DHT22;2755;50.728;7.108;2022-11-21T11:55:42;10.20;99.80
5466;DHT22;2755;50.728;7.108;2022-11-21T12:01:04;10.40;98.20
5466;DHT22;2755;50.728;7.108;2022-11-21T12:03:47;10.20;99.10
5466;DHT22;2755;50.728;7.108;2022-11-21T12:06:18;10.20;99.20
5466;DHT22;2755;50.728;7.108;2022-11-21T12:12:04;10.10;99.90
5466;DHT22;2755;50.728;7.108;2022-11-21T12:15:22;10.40;99.90
5466;DHT22;2755;50.728;7.108;2022-11-21T12:21:12;10.00;99.90
5466;DHT22;2755;50.728;7.108;2022-11-21T12:37:56;9.50;99.90
5466;DHT22;2755;50.728;7.108;2022-11-21T12:43:36;9.50;99.90
5466;DHT22;2755;50.728;7.108;2022-11-21T12:52:30;10.10;99.90
5466;DHT22;2755;50.728;7.108;2022-11-21T12:55:22;9.60;99.80
5466;DHT22;2755;50.728;7.108;2022-11-21T13:05:54;10.10;99.90
5466;DHT22;2755;50.728;7.108;2022-11-21T13:08:24;9.50;99.40
5466;DHT22;2755;50.728;7.108;2022-11-21T13:10:57;9.60;99.40
5466;DHT22;2755;50.728;7.108;2022-11-21T13:13:46;9.50;99.30
5466;DHT22;2755;50.728;7.108;2022-11-21T13:16:18;8.90;99.90
5466;DHT22;2755;50.728;7.108;2022-11-21T13:19:10;9.50;99.40
5466;DHT22;2755;50.728;7.108;2022-11-21T13:24:06;9.20;99.90
5466;DHT22;2755;50.728;7.108;2022-11-21T13:29:10;9.40;99.90
5466;DHT22;2755;50.728;7.108;2022-11-21T13:31:36;10.40;99.90
5466;DHT22;2755;50.728;7.108;2022-11-21T13:34:03;9.60;99.90
5466;DHT22;2755;50.728;7.108;2022-11-21T13:57:51;9.20;99.90
5466;DHT22;2755;50.728;7.108;2022-11-21T14:00:31;9.30;99.90
5466;DHT22;2755;50.728;7.108;2022-11-21T14:08:23;9.10;99.90
5466;DHT22;2755;50.728;7.108;2022-11-21T14:10:50;9.00;99.90
5466;DHT22;2755;50.728;7.108;2022-11-21T14:18:31;8.70;99.90
5466;DHT22;2755;50.728;7.108;2022-11-21T14:20:58;8.70;99.90
5466;DHT22;2755;50.728;7.108;2022-11-21T14:23:32;8.80;99.90
5466;DHT22;2755;50.728;7.108;2022-11-21T14:26:02;8.70;99.90
5466;DHT22;2755;50.728;7.108;2022-11-21T14:28:34;9.90;99.90
5466;DHT22;2755;50.728;7.108;2022-11-21T14:31:05;8.60;99.90
5466;DHT22;2755;50.728;7.108;2022-11-21T14:33:33;8.50;99.90
5466;DHT22;2755;50.728;7.108;2022-11-21T14:36:20;8.50;99.90
5466;DHT22;2755;50.728;7.108;2022-11-21T14:38:48;8.40;99.90
5466;DHT22;2755;50.728;7.108;2022-11-21T14:46:30;8.10;99.90
5466;DHT22;2755;50.728;7.108;2022-11-21T14:51:23;8.00;99.90
5466;DHT22;2755;50.728;7.108;2022-11-21T14:53:50;8.10;99.90
5466;DHT22;2755;50.728;7.108;2022-11-21T14:56:26;7.80;99.90
5466;DHT22;2755;50.728;7.108;2022-11-21T14:58:54;7.80;99.90
5466;DHT22;2755;50.728;7.108;2022-11-21T15:01:31;7.70;99.90
5466;DHT22;2755;50.728;7.108;2022-11-21T15:04:06;7.70;99.90
5466;DHT22;2755;50.728;7.108;2022-11-21T15:06:41;7.80;99.90
5466;DHT22;2755;50.728;7.108;2022-11-21T15:09:12;7.60;99.90
5466;DHT22;2755;50.728;7.108;2022-11-21T15:16:45;8.10;99.90
5466;DHT22;2755;50.728;7.108;2022-11-21T15:19:25;7.50;99.90
5466;DHT22;2755;50.728;7.108;2022-11-21T15:21:53;7.10;99.90
5466;DHT22;2755;50.728;7.108;2022-11-21T15:26:57;7.40;99.90
5466;DHT22;2755;50.728;7.108;2022-11-21T15:29:23;7.50;99.90
5466;DHT22;2755;50.728;7.108;2022-11-21T15:32:08;7.30;99.90
5466;DHT22;2755;50.728;7.108;2022-11-21T15:39:33;7.30;99.90
5466;DHT22;2755;50.728;7.108;2022-11-21T15:50:04;7.40;99.90
5466;DHT22;2755;50.728;7.108;2022-11-21T15:59:48;7.70;99.90
5466;DHT22;2755;50.728;7.108;2022-11-21T16:04:40;7.40;99.90
5466;DHT22;2755;50.728;7.108;2022-11-21T16:09:32;6.70;99.90
5466;DHT22;2755;50.728;7.108;2022-11-21T16:14:23;7.30;99.90
5466;DHT22;2755;50.728;7.108;2022-11-21T16:16:49;7.10;99.90
5466;DHT22;2755;50.728;7.108;2022-11-21T16:19:14;7.20;99.90
5466;DHT22;2755;50.728;7.108;2022-11-21T16:24:07;8.20;99.90
5466;DHT22;2755;50.728;7.108;2022-11-21T16:26:32;6.70;99.90
5466;DHT22;2755;50.728;7.108;2022-11-21T16:28:59;7.20;99.90
5466;DHT22;2755;50.728;7.108;2022-11-21T16:31:26;7.20;99.90
5466;DHT22;2755;50.728;7.108;2022-11-21T16:33:52;7.30;99.90
5466;DHT22;2755;50.728;7.108;2022-11-21T16:36:19;7.50;99.90
5466;DHT22;2755;50.728;7.108;2022-11-21T16:38:45;7.00;99.90
5466;DHT22;2755;50.728;7.108;2022-11-21T16:41:11;7.40;99.90
5466;DHT22;2755;50.728;7.108;2022-11-21T16:43:44;7.30;99.90
5466;DHT22;2755;50.728;7.108;2022-11-21T16:46:11;7.40;99.90
5466;DHT22;2755;50.728;7.108;2022-11-21T16:48:37;7.30;99.90
5466;DHT22;2755;50.728;7.108;2022-11-21T16:53:40;7.20;99.90
5466;DHT22;2755;50.728;7.108;2022-11-21T16:56:06;7.20;99.90
5466;DHT22;2755;50.728;7.108;2022-11-21T16:58:32;7.00;99.90
5466;DHT22;2755;50.728;7.108;2022-11-21T17:01:16;7.20;99.90
5466;DHT22;2755;50.728;7.108;2022-11-21T17:03:43;7.00;99.90
5466;DHT22;2755;50.728;7.108;2022-11-21T17:08:36;7.10;99.90
5466;DHT22;2755;50.728;7.108;2022-11-21T17:18:34;6.70;99.90
5466;DHT22;2755;50.728;7.108;2022-11-21T17:21:11;7.30;99.90
5466;DHT22;2755;50.728;7.108;2022-11-21T17:23:38;7.50;99.90
5466;DHT22;2755;50.728;7.108;2022-11-21T17:26:09;7.20;99.90
5466;DHT22;2755;50.728;7.108;2022-11-21T17:28:35;7.20;99.90
5466;DHT22;2755;50.728;7.108;2022-11-21T17:31:09;7.10;99.90
5466;DHT22;2755;50.728;7.108;2022-11-21T17:33:35;7.20;99.90
5466;DHT22;2755;50.728;7.108;2022-11-21T17:36:03;7.20;99.90
5466;DHT22;2755;50.728;7.108;2022-11-21T17:38:29;6.70;99.90
5466;DHT22;2755;50.728;7.108;2022-11-21T17:40:59;6.90;99.90
5466;DHT22;2755;50.728;7.108;2022-11-21T17:43:24;7.10;99.90
5466;DHT22;2755;50.728;7.108;2022-11-21T17:50:42;7.10;99.90
5466;DHT22;2755;50.728;7.108;2022-11-21T17:53:07;7.20;99.90
5466;DHT22;2755;50.728;7.108;2022-11-21T17:57:59;7.00;99.90
5466;DHT22;2755;50.728;7.108;2022-11-21T18:02:50;7.20;99.90
5466;DHT22;2755;50.728;7.108;2022-11-21T18:05:16;7.20;99.90
5466;DHT22;2755;50.728;7.108;2022-11-21T18:07:41;7.20;99.90
5466;DHT22;2755;50.728;7.108;2022-11-21T18:10:07;6.70;99.90
5466;DHT22;2755;50.728;7.108;2022-11-21T18:12:33;7.40;99.90
5466;DHT22;2755;50.728;7.108;2022-11-21T18:14:58;7.20;99.90
5466;DHT22;2755;50.728;7.108;2022-11-21T18:17:24;7.20;99.90
5466;DHT22;2755;50.728;7.108;2022-11-21T18:19:50;7.80;99.90
5466;DHT22;2755;50.728;7.108;2022-11-21T18:22:15;7.00;99.90
5466;DHT22;2755;50.728;7.108;2022-11-21T18:24:41;7.40;99.90
5466;DHT22;2755;50.728;7.108;2022-11-21T18:27:06;7.30;99.90
5466;DHT22;2755;50.728;7.108;2022-11-21T18:29:32;7.30;99.90
5466;DHT22;2755;50.728;7.108;2022-11-21T18:31:57;7.40;99.90
5466;DHT22;2755;50.728;7.108;2022-11-21T18:34:23;7.40;99.90
5466;DHT22;2755;50.728;7.108;2022-11-21T18:36:48;7.10;99.90
5466;DHT22;2755;50.728;7.108;2022-11-21T18:39:14;7.30;99.90
5466;DHT22;2755;50.728;7.108;2022-11-21T18:48:58;7.40;99.90
5466;DHT22;2755;50.728;7.108;2022-11-21T18:51:26;7.20;99.90
5466;DHT22;2755;50.728;7.108;2022-11-21T18:56:20;7.10;99.90
5466;DHT22;2755;50.728;7.108;2022-11-21T18:58:46;7.30;99.90
5466;DHT22;2755;50.728;7.108;2022-11-21T19:01:14;7.00;99.90
5466;DHT22;2755;50.728;7.108;2022-11-21T19:03:40;7.50;99.90
5466;DHT22;2755;50.728;7.108;2022-11-21T19:06:10;7.50;99.90
5466;DHT22;2755;50.728;7.108;2022-11-21T19:08:38;7.60;99.90
5466;DHT22;2755;50.728;7.108;2022-11-21T19:11:05;7.20;99.90
5466;DHT22;2755;50.728;7.108;2022-11-21T19:13:31;7.20;99.90
5466;DHT22;2755;50.728;7.108;2022-11-21T19:16:05;7.20;99.90
5466;DHT22;2755;50.728;7.108;2022-11-21T19:18:37;7.40;99.90
5466;DHT22;2755;50.728;7.108;2022-11-21T19:21:08;7.10;99.90
5466;DHT22;2755;50.728;7.108;2022-11-21T19:23:35;7.30;99.90
5466;DHT22;2755;50.728;7.108;2022-11-21T19:26:04;7.30;99.90
5466;DHT22;2755;50.728;7.108;2022-11-21T19:28:31;6.70;99.90
5466;DHT22;2755;50.728;7.108;2022-11-21T19:30:57;7.60;99.90
5466;DHT22;2755;50.728;7.108;2022-11-21T19:33:24;6.20;99.90
5466;DHT22;2755;50.728;7.108;2022-11-21T19:35:50;6.90;99.90
5466;DHT22;2755;50.728;7.108;2022-11-21T19:38:16;7.10;99.90
5466;DHT22;2755;50.728;7.108;2022-11-21T19:40:42;7.10;99.90
5466;DHT22;2755;50.728;7.108;2022-11-21T19:43:28;7.30;99.90
5466;DHT22;2755;50.728;7.108;2022-11-21T19:45:53;6.80;99.90
5466;DHT22;2755;50.728;7.108;2022-11-21T19:48:19;7.20;99.90
5466;DHT22;2755;50.728;7.108;2022-11-21T19:50:54;7.20;99.90
5466;DHT22;2755;50.728;7.108;2022-11-21T19:53:20;7.20;99.90
5466;DHT22;2755;50.728;7.108;2022-11-21T19:55:45;7.50;99.90
5466;DHT22;2755;50.728;7.108;2022-11-21T19:58:11;7.20;99.90
5466;DHT22;2755;50.728;7.108;2022-11-21T20:00:36;7.10;99.90
5466;DHT22;2755;50.728;7.108;2022-11-21T20:03:02;7.00;99.90
5466;DHT22;2755;50.728;7.108;2022-11-21T20:05:27;7.80;99.90
5466;DHT22;2755;50.728;7.108;2022-11-21T20:07:53;7.30;99.90
5466;DHT22;2755;50.728;7.108;2022-11-21T20:10:21;7.40;99.90
5466;DHT22;2755;50.728;7.108;2022-11-21T20:12:46;7.40;99.90
5466;DHT22;2755;50.728;7.108;2022-11-21T20:15:12;7.40;99.90
5466;DHT22;2755;50.728;7.108;2022-11-21T20:17:39;7.90;99.90
5466;DHT22;2755;50.728;7.108;2022-11-21T20:20:05;7.60;99.90
5466;DHT22;2755;50.728;7.108;2022-11-21T20:27:23;7.50;99.90
5466;DHT22;2755;50.728;7.108;2022-11-21T20:32:15;7.80;99.90
5466;DHT22;2755;50.728;7.108;2022-11-21T20:39:32;8.00;99.90
5466;DHT22;2755;50.728;7.108;2022-11-21T20:41:58;7.30;99.90
5466;DHT22;2755;50.728;7.108;2022-11-21T20:46:50;7.20;99.90
5466;DHT22;2755;50.728;7.108;2022-11-21T20:49:15;7.80;99.90
5466;DHT22;2755;50.728;7.108;2022-11-21T20:54:08;7.60;99.90
5466;DHT22;2755;50.728;7.108;2022-11-21T20:56:35;7.60;99.90
5466;DHT22;2755;50.728;7.108;2022-11-21T21:01:27;7.50;99.90
5466;DHT22;2755;50.728;7.108;2022-11-21T21:06:19;7.70;99.90
5466;DHT22;2755;50.728;7.108;2022-11-21T21:08:49;7.70;99.90
5466;DHT22;2755;50.728;7.108;2022-11-21T21:11:22;7.80;99.90
5466;DHT22;2755;50.728;7.108;2022-11-21T21:13:49;7.40;99.90
5466;DHT22;2755;50.728;7.108;2022-11-21T21:16:17;7.70;99.90
5466;DHT22;2755;50.728;7.108;2022-11-21T21:18:44;7.30;99.90
5466;DHT22;2755;50.728;7.108;2022-11-21T21:21:12;7.90;99.90
5466;DHT22;2755;50.728;7.108;2022-11-21T21:23:39;7.80;99.90
5466;DHT22;2755;50.728;7.108;2022-11-21T21:26:09;7.50;99.90
5466;DHT22;2755;50.728;7.108;2022-11-21T21:31:05;7.50;99.90
5466;DHT22;2755;50.728;7.108;2022-11-21T21:36:06;7.30;99.90
5466;DHT22;2755;50.728;7.108;2022-11-21T21:38:32;7.20;99.90
5466;DHT22;2755;50.728;7.108;2022-11-21T21:40:58;6.60;99.90
5466;DHT22;2755;50.728;7.108;2022-11-21T21:43:25;7.50;99.90
5466;DHT22;2755;50.728;7.108;2022-11-21T21:48:16;7.70;99.90
5466;DHT22;2755;50.728;7.108;2022-11-21T21:50:42;7.00;99.90
5466;DHT22;2755;50.728;7.108;2022-11-21T21:53:08;7.40;99.90